Time;durP1;ratioP1;P1;durP2;ratioP2;P2;SDS_P1;SDS_P2;PMS_P1;PMS_P2;Temp;Humidity;BMP_temperature;BMP_pressure;BME280_temperature;BME280_humidity;BME280_pressure;Samples;Min_cycle;Max_cycle;Signal;HPM_P1;HPM_P2
2020/12/16 00:01:15;;;;;;;;;;;;;;;21.88;42.68;100640.75;3117844;27;114074;-61
2020/12/16 00:02:46;;;;;;;;;;;;;;;21.86;42.90;100643.03;3129361;27;113894;-61
2020/12/16 00:04:18;;;;;;;;;;;;;;;21.87;42.81;100638.25;3133402;27;114224;-61
2020/12/16 00:05:49;;;;;;;;;;;;;;;21.85;43.04;100641.38;3134340;27;114415;-61
2020/12/16 00:07:20;;;;;;;;;;;;;;;21.84;42.86;100650.16;3134233;27;114673;-62
2020/12/16 00:08:51;;;;;;;;;;;;;;;21.83;42.81;100640.06;3132627;27;114183;-61
2020/12/16 00:10:22;;;;;;;;;;;;;;;21.82;42.91;100635.59;3134630;27;114179;-61
2020/12/16 00:11:53;;;;;;;;;;;;;;;21.83;43.01;100640.06;3133574;27;114587;-61
2020/12/16 00:13:25;;;;;;;;;;;;;;;21.82;42.84;100644.84;3134507;27;114279;-60
2020/12/16 00:14:56;;;;;;;;;;;;;;;21.81;42.97;100647.97;3131850;27;114917;-61
2020/12/16 00:16:36;;;;;;;;;;;;;;;21.81;42.88;100656.41;3137563;27;114274;-61
2020/12/16 00:18:07;;;;;;;;;;;;;;;21.80;43.20;100658.44;3133795;27;114947;-60
2020/12/16 00:19:40;;;;;;;;;;;;;;;21.79;43.14;100655.94;3134308;27;115273;-60
2020/12/16 00:21:11;;;;;;;;;;;;;;;21.78;42.94;100663.53;3134860;27;114593;-60
2020/12/16 00:22:42;;;;;;;;;;;;;;;21.79;43.03;100667.19;3134626;27;115127;-60
2020/12/16 00:24:13;;;;;;;;;;;;;;;21.78;43.20;100660.72;3133222;27;115587;-60
2020/12/16 00:25:44;;;;;;;;;;;;;;;21.76;42.90;100662.22;3133975;27;114105;-60
2020/12/16 00:27:15;;;;;;;;;;;;;;;21.76;42.97;100659.41;3133694;27;115327;-61
2020/12/16 00:28:46;;;;;;;;;;;;;;;21.72;42.93;100653.56;3134068;27;114320;-60
2020/12/16 00:30:17;;;;;;;;;;;;;;;21.70;42.96;100658.69;3132122;27;115093;-60
2020/12/16 00:31:49;;;;;;;;;;;;;;;21.68;43.30;100658.19;3132229;27;114268;-60
2020/12/16 00:33:20;;;;;;;;;;;;;;;21.65;43.37;100653.22;3120251;27;115339;-60
2020/12/16 00:34:51;;;;;;;;;;;;;;;21.63;43.36;100653.53;3128935;27;115163;-61
2020/12/16 00:36:22;;;;;;;;;;;;;;;21.63;43.37;100653.53;3134059;27;114240;-60
2020/12/16 00:37:53;;;;;;;;;;;;;;;21.63;43.29;100650.72;3137635;27;115149;-60
2020/12/16 00:39:24;;;;;;;;;;;;;;;21.61;43.29;100641.78;3133166;27;115650;-60
2020/12/16 00:40:55;;;;;;;;;;;;;;;21.61;43.22;100638.97;3133698;27;114626;-60
2020/12/16 00:42:26;;;;;;;;;;;;;;;21.60;43.25;100640.13;3133536;27;117056;-60
2020/12/16 00:43:57;;;;;;;;;;;;;;;21.59;43.58;100646.91;3133437;27;115952;-60
2020/12/16 00:45:28;;;;;;;;;;;;;;;21.59;43.48;100646.06;3133549;27;114975;-60
2020/12/16 00:46:59;;;;;;;;;;;;;;;21.56;43.63;100644.75;3131220;27;115949;-60
2020/12/16 00:48:31;;;;;;;;;;;;;;;21.57;43.81;100642.75;3133782;27;117587;-60
2020/12/16 00:50:03;;;;;;;;;;;;;;;21.56;43.68;100643.91;3134293;27;116174;-60
2020/12/16 00:51:36;;;;;;;;;;;;;;;21.53;43.69;100636.13;3134111;27;117516;-60
2020/12/16 00:53:07;;;;;;;;;;;;;;;21.51;43.56;100636.44;3132850;27;115773;-60
2020/12/16 00:54:38;;;;;;;;;;;;;;;21.52;43.49;100638.09;3131027;27;115751;-60
2020/12/16 00:56:09;;;;;;;;;;;;;;;21.51;43.82;100642.06;3134603;27;115931;-61
2020/12/16 00:57:41;;;;;;;;;;;;;;;21.51;43.94;100641.22;3133228;27;116694;-60
2020/12/16 00:59:12;;;;;;;;;;;;;;;21.50;43.85;100637.59;3122848;27;115795;-60
2020/12/16 01:00:43;;;;;;;;;;;;;;;21.48;44.05;100641.88;3129781;27;114742;-60
2020/12/16 01:02:14;;;;;;;;;;;;;;;21.49;43.92;100641.53;3132776;27;114142;-60
2020/12/16 01:03:45;;;;;;;;;;;;;;;21.49;43.65;100637.91;3118364;27;114143;-60
2020/12/16 01:05:17;;;;;;;;;;;;;;;21.48;43.91;100637.09;3129539;27;114499;-60
2020/12/16 01:06:48;;;;;;;;;;;;;;;21.45;43.92;100643.34;3120119;27;113830;-59
2020/12/16 01:08:19;;;;;;;;;;;;;;;21.45;43.89;100636.88;3128941;27;114260;-60
2020/12/16 01:09:50;;;;;;;;;;;;;;;21.42;44.04;100637.53;3133133;27;114346;-59
2020/12/16 01:11:22;;;;;;;;;;;;;;;21.41;43.87;100633.06;3133635;27;114146;-60
2020/12/16 01:12:53;;;;;;;;;;;;;;;21.41;44.00;100636.72;3133592;27;114336;-59
2020/12/16 01:14:24;;;;;;;;;;;;;;;21.41;43.86;100635.88;3130882;27;113985;-60
2020/12/16 01:15:55;;;;;;;;;;;;;;;21.37;43.80;100629.25;3134416;27;114230;-60
2020/12/16 01:17:26;;;;;;;;;;;;;;;21.37;43.89;100632.88;3133304;27;114010;-59
2020/12/16 01:18:57;;;;;;;;;;;;;;;21.35;44.12;100625.94;3119395;27;115096;-60
2020/12/16 01:20:28;;;;;;;;;;;;;;;21.35;43.93;100623.13;3130235;27;114248;-60
2020/12/16 01:22:12;;;;;;;;;;;;;;;21.33;44.06;100615.00;3137944;27;113798;-60
2020/12/16 01:23:44;;;;;;;;;;;;;;;21.32;44.19;100613.34;3129981;27;114671;-60
2020/12/16 01:25:16;;;;;;;;;;;;;;;21.32;44.21;100616.16;3134636;27;116068;-59
2020/12/16 01:26:48;;;;;;;;;;;;;;;21.31;43.80;100614.50;3133274;27;114642;-59
2020/12/16 01:28:19;;;;;;;;;;;;;;;21.29;43.95;100612.03;3134178;27;114134;-60
2020/12/16 01:29:50;;;;;;;;;;;;;;;21.29;44.33;100608.38;3133945;27;114169;-60
2020/12/16 01:31:21;;;;;;;;;;;;;;;21.26;43.91;100612.66;3134703;27;115309;-60
2020/12/16 01:32:53;;;;;;;;;;;;;;;21.27;44.26;100610.66;3133619;27;115210;-62
2020/12/16 01:34:24;;;;;;;;;;;;;;;21.28;44.02;100606.72;3133253;27;115115;-60
2020/12/16 01:35:55;;;;;;;;;;;;;;;21.23;44.05;100606.84;3134333;27;114364;-56
2020/12/16 01:37:26;;;;;;;;;;;;;;;21.23;44.26;100604.03;3134447;27;115233;-56
2020/12/16 01:38:57;;;;;;;;;;;;;;;21.22;44.38;100606.00;3118993;27;114990;-55
2020/12/16 01:40:28;;;;;;;;;;;;;;;21.22;44.26;100603.19;3129884;27;114486;-56
2020/12/16 01:41:59;;;;;;;;;;;;;;;21.23;44.29;100607.69;3133357;27;114588;-55
2020/12/16 01:43:34;;;;;;;;;;;;;;;21.22;44.34;100606.00;3136854;27;115192;-56
2020/12/16 01:45:06;;;;;;;;;;;;;;;21.21;44.30;100606.34;3134856;27;115990;-56
2020/12/16 01:46:44;;;;;;;;;;;;;;;21.20;44.14;100597.09;3130811;27;115167;-56
2020/12/16 01:48:15;;;;;;;;;;;;;;;21.18;44.25;100606.97;3133746;27;115556;-56
2020/12/16 01:49:46;;;;;;;;;;;;;;;21.16;44.37;100596.09;3133037;27;116484;-55
2020/12/16 01:51:20;;;;;;;;;;;;;;;21.18;44.46;100587.31;3134193;27;115722;-56
2020/12/16 01:52:52;;;;;;;;;;;;;;;21.13;44.86;100593.06;3133504;27;114838;-56
2020/12/16 01:54:24;;;;;;;;;;;;;;;21.13;44.31;100593.06;3119162;27;116080;-56
2020/12/16 01:55:57;;;;;;;;;;;;;;;21.13;44.56;100590.25;3129991;27;114598;-57
2020/12/16 01:57:29;;;;;;;;;;;;;;;21.13;44.54;100596.69;3133022;27;115035;-57
2020/12/16 01:59:02;;;;;;;;;;;;;;;21.12;44.49;100597.00;3133589;27;114752;-56
2020/12/16 02:00:33;;;;;;;;;;;;;;;21.11;44.57;100600.97;3120919;27;115785;-56
2020/12/16 02:02:06;;;;;;;;;;;;;;;21.08;44.60;100601.59;3126433;27;114996;-56
2020/12/16 02:03:40;;;;;;;;;;;;;;;21.07;44.89;100594.34;3133085;27;114992;-57
2020/12/16 02:05:14;;;;;;;;;;;;;;;21.03;44.95;100598.94;3139111;27;115196;-57
2020/12/16 02:06:45;;;;;;;;;;;;;;;21.03;44.77;100602.53;3123065;27;114406;-57
2020/12/16 02:08:18;;;;;;;;;;;;;;;21.02;44.73;100603.72;3131339;27;113857;-57
2020/12/16 02:09:49;;;;;;;;;;;;;;;21.00;44.72;100605.19;3135635;27;113844;-56
2020/12/16 02:11:20;;;;;;;;;;;;;;;20.98;44.79;100604.69;3136072;27;113942;-56
2020/12/16 02:12:52;;;;;;;;;;;;;;;20.97;44.73;100605.81;3135491;27;114010;-56
2020/12/16 02:14:23;;;;;;;;;;;;;;;20.96;44.84;100602.19;3135098;27;114384;-56
2020/12/16 02:15:54;;;;;;;;;;;;;;;20.95;45.01;100599.69;3136889;27;113895;-57
2020/12/16 02:17:26;;;;;;;;;;;;;;;20.92;44.96;100598.34;3134838;27;114489;-57
2020/12/16 02:18:57;;;;;;;;;;;;;;;20.92;44.94;100606.78;3121766;27;114296;-56
2020/12/16 02:20:28;;;;;;;;;;;;;;;20.91;44.84;100599.50;3131593;27;114096;-56
2020/12/16 02:21:59;;;;;;;;;;;;;;;20.90;45.06;100609.06;3136026;27;113780;-56
2020/12/16 02:23:32;;;;;;;;;;;;;;;20.87;45.50;100604.09;3134223;27;113850;-56
2020/12/16 02:25:13;;;;;;;;;;;;;;;20.90;45.09;100611.03;3135645;27;113907;-57
2020/12/16 02:26:44;;;;;;;;;;;;;;;20.86;45.32;100605.25;3139465;27;114275;-57
2020/12/16 02:28:15;;;;;;;;;;;;;;;20.85;45.06;100597.97;3136051;27;115137;-57
2020/12/16 02:29:46;;;;;;;;;;;;;;;20.84;45.70;100594.34;3133572;27;114364;-57
2020/12/16 02:31:18;;;;;;;;;;;;;;;20.84;45.35;100587.91;3122665;27;115171;-57
2020/12/16 02:32:49;;;;;;;;;;;;;;;20.83;45.48;100587.06;3127010;27;115131;-57
2020/12/16 02:34:20;;;;;;;;;;;;;;;20.83;45.12;100591.84;3134925;27;115167;-56
2020/12/16 02:35:51;;;;;;;;;;;;;;;20.84;45.42;100588.72;3136239;27;115277;-57
2020/12/16 02:37:23;;;;;;;;;;;;;;;20.83;45.12;100580.63;3135847;27;116005;-56
2020/12/16 02:38:54;;;;;;;;;;;;;;;20.82;45.73;100587.38;3133345;27;114246;-56
2020/12/16 02:40:25;;;;;;;;;;;;;;;20.81;45.43;100588.50;3119520;27;115394;-56
2020/12/16 02:42:04;;;;;;;;;;;;;;;20.79;45.58;100588.84;3130499;27;114179;-56
2020/12/16 02:43:36;;;;;;;;;;;;;;;20.81;45.52;100588.50;3122995;27;114309;-56
2020/12/16 02:45:07;;;;;;;;;;;;;;;20.79;45.29;100574.81;3133647;27;114353;-56
2020/12/16 02:46:38;;;;;;;;;;;;;;;20.79;45.61;100580.44;3135336;27;115501;-56
2020/12/16 02:48:09;;;;;;;;;;;;;;;20.76;45.64;100581.06;3139691;27;114289;-56
2020/12/16 02:49:40;;;;;;;;;;;;;;;20.75;45.36;100576.59;3114803;27;115502;-56
2020/12/16 02:51:11;;;;;;;;;;;;;;;20.77;45.32;100579.06;3124888;27;115811;-56
2020/12/16 02:52:42;;;;;;;;;;;;;;;20.73;45.65;100567.66;3135482;27;114924;-55
2020/12/16 02:54:13;;;;;;;;;;;;;;;20.73;45.59;100575.25;3135073;27;114520;-56
2020/12/16 02:55:44;;;;;;;;;;;;;;;20.72;45.36;100577.22;3136090;27;116167;-55
2020/12/16 02:57:16;;;;;;;;;;;;;;;20.69;45.50;100568.63;3122049;27;115748;-56
2020/12/16 02:58:47;;;;;;;;;;;;;;;20.72;45.65;100571.59;3130839;27;114478;-56
2020/12/16 03:00:18;;;;;;;;;;;;;;;20.71;45.31;100566.34;3136649;27;115189;-56
2020/12/16 03:01:49;;;;;;;;;;;;;;;20.68;45.47;100570.59;3121236;27;115312;-56
2020/12/16 03:03:21;;;;;;;;;;;;;;;20.69;45.38;100575.06;3118026;27;114651;-56
2020/12/16 03:04:52;;;;;;;;;;;;;;;20.70;45.47;100575.91;3122143;27;115949;-56
2020/12/16 03:06:23;;;;;;;;;;;;;;;20.68;45.34;100572.56;3131043;27;115769;-56
2020/12/16 03:07:54;;;;;;;;;;;;;;;20.69;45.54;100575.06;3135652;27;114725;-56
2020/12/16 03:09:25;;;;;;;;;;;;;;;20.66;45.72;100572.91;3134625;27;114427;-56
2020/12/16 03:10:56;;;;;;;;;;;;;;;20.67;45.32;100574.53;3139119;27;116072;-56
2020/12/16 03:12:27;;;;;;;;;;;;;;;20.66;45.33;100574.88;3134333;27;114008;-56
2020/12/16 03:13:59;;;;;;;;;;;;;;;20.65;45.39;100584.44;3135724;27;113855;-56
2020/12/16 03:15:30;;;;;;;;;;;;;;;20.64;45.33;100580.81;3122350;27;114128;-56
2020/12/16 03:17:02;;;;;;;;;;;;;;;20.64;45.64;100579.97;3121980;27;114601;-56
2020/12/16 03:18:33;;;;;;;;;;;;;;;20.65;45.76;100573.22;3118072;27;113991;-56
2020/12/16 03:20:04;;;;;;;;;;;;;;;20.62;45.48;100583.13;3123129;27;114374;-56
2020/12/16 03:21:36;;;;;;;;;;;;;;;20.59;45.54;100572.50;3123763;27;114419;-56
2020/12/16 03:23:22;;;;;;;;;;;;;;;20.55;45.86;100574.28;3123040;27;115225;-55
2020/12/16 03:24:54;;;;;;;;;;;;;;;20.58;45.67;100570.84;3116789;27;114244;-55
2020/12/16 03:26:25;;;;;;;;;;;;;;;20.56;45.97;100573.16;3123009;27;114074;-56
2020/12/16 03:27:56;;;;;;;;;;;;;;;20.56;45.53;100567.53;3122906;27;114214;-57
2020/12/16 03:29:27;;;;;;;;;;;;;;;20.55;45.76;100574.28;3122610;27;114017;-57
2020/12/16 03:30:58;;;;;;;;;;;;;;;20.54;45.56;100567.00;3122268;27;114308;-56
2020/12/16 03:32:29;;;;;;;;;;;;;;;20.54;45.83;100567.00;3125399;27;113902;-60
2020/12/16 03:34:00;;;;;;;;;;;;;;;20.53;46.06;100570.16;3122853;27;115003;-61
2020/12/16 03:35:31;;;;;;;;;;;;;;;20.52;45.87;100574.94;3122830;27;117226;-60
2020/12/16 03:37:02;;;;;;;;;;;;;;;20.50;45.65;100576.38;3122494;27;115229;-59
2020/12/16 03:38:34;;;;;;;;;;;;;;;20.51;45.51;100566.81;3122046;27;115196;-59
2020/12/16 03:40:05;;;;;;;;;;;;;;;20.51;45.65;100567.66;3123452;27;115906;-55
2020/12/16 03:41:37;;;;;;;;;;;;;;;20.51;45.62;100566.81;3122433;27;114497;-55
2020/12/16 03:43:08;;;;;;;;;;;;;;;20.49;45.84;100569.13;3121005;27;114155;-55
2020/12/16 03:44:39;;;;;;;;;;;;;;;20.48;45.95;100561.84;3122675;27;115269;-55
2020/12/16 03:46:10;;;;;;;;;;;;;;;20.49;45.88;100555.09;3123390;27;114963;-55
2020/12/16 03:47:41;;;;;;;;;;;;;;;20.47;45.87;100554.56;3121291;27;114880;-55
2020/12/16 03:49:12;;;;;;;;;;;;;;;20.46;46.11;100544.50;3115265;27;115231;-55
2020/12/16 03:50:43;;;;;;;;;;;;;;;20.44;46.19;100560.84;3122763;27;115221;-60
2020/12/16 03:52:14;;;;;;;;;;;;;;;20.43;46.17;100554.38;3122514;27;115174;-60
2020/12/16 03:53:51;;;;;;;;;;;;;;;20.46;46.19;100558.53;3111779;28;115478;-60
2020/12/16 03:55:23;;;;;;;;;;;;;;;20.45;46.24;100554.03;3122819;27;118108;-59
2020/12/16 03:56:54;;;;;;;;;;;;;;;20.42;46.24;100552.72;3121831;27;116341;-60
2020/12/16 03:58:25;;;;;;;;;;;;;;;20.40;45.98;100549.38;3122931;27;116018;-60
2020/12/16 03:59:56;;;;;;;;;;;;;;;20.40;45.98;100543.78;3115892;27;115672;-60
2020/12/16 04:01:27;;;;;;;;;;;;;;;20.39;46.18;100542.97;3116429;27;114711;-60
2020/12/16 04:02:58;;;;;;;;;;;;;;;20.36;46.13;100540.78;3122074;27;115722;-60
2020/12/16 04:04:29;;;;;;;;;;;;;;;20.37;46.25;100533.19;3121842;27;114833;-58
2020/12/16 04:06:09;;;;;;;;;;;;;;;20.33;46.37;100532.19;3120114;27;115744;-55
2020/12/16 04:07:40;;;;;;;;;;;;;;;20.35;46.25;100527.09;3114742;27;114669;-55
2020/12/16 04:09:12;;;;;;;;;;;;;;;20.36;46.63;100523.13;3110243;27;115897;-55
2020/12/16 04:10:43;;;;;;;;;;;;;;;20.34;46.32;100526.25;3121949;27;115721;-54
2020/12/16 04:12:14;;;;;;;;;;;;;;;20.34;46.67;100528.22;3120072;27;114762;-55
2020/12/16 04:13:45;;;;;;;;;;;;;;;20.32;46.39;100533.31;3119563;27;115817;-55
2020/12/16 04:15:16;;;;;;;;;;;;;;;20.32;46.41;100524.91;3124734;27;114657;-55
2020/12/16 04:16:48;;;;;;;;;;;;;;;20.29;46.57;100525.50;3121102;27;114254;-60
2020/12/16 04:18:19;;;;;;;;;;;;;;;20.26;46.50;100526.16;3122922;27;114178;-60
2020/12/16 04:19:50;;;;;;;;;;;;;;;20.27;46.62;100527.78;3112854;27;114182;-60
2020/12/16 04:21:21;;;;;;;;;;;;;;;20.27;46.40;100525.00;3117281;27;114320;-60
2020/12/16 04:22:52;;;;;;;;;;;;;;;20.27;46.52;100536.22;3122191;27;113947;-60
2020/12/16 04:24:23;;;;;;;;;;;;;;;20.27;46.48;100525.00;3121159;27;114361;-59
2020/12/16 04:25:54;;;;;;;;;;;;;;;20.25;46.60;100527.28;3123325;27;113837;-59
2020/12/16 04:27:25;;;;;;;;;;;;;;;20.24;46.53;100518.06;3120799;27;114106;-60
2020/12/16 04:28:56;;;;;;;;;;;;;;;20.24;46.53;100518.06;3121465;27;113895;-59
2020/12/16 04:30:28;;;;;;;;;;;;;;;20.23;46.72;100519.19;3122553;27;114224;-55
2020/12/16 04:31:59;;;;;;;;;;;;;;;20.23;46.52;100518.34;3121243;27;114149;-55
2020/12/16 04:33:30;;;;;;;;;;;;;;;20.22;46.43;100525.09;3120703;27;114328;-55
2020/12/16 04:35:02;;;;;;;;;;;;;;;20.22;46.42;100522.28;3120563;27;113953;-56
2020/12/16 04:36:34;;;;;;;;;;;;;;;20.24;46.57;100517.22;3110293;27;114417;-55
2020/12/16 04:38:05;;;;;;;;;;;;;;;20.22;46.53;100519.50;3125638;27;113959;-55
2020/12/16 04:39:37;;;;;;;;;;;;;;;20.20;46.52;100517.03;3121957;27;114293;-55
2020/12/16 04:41:09;;;;;;;;;;;;;;;20.20;46.49;100502.16;3118207;27;115298;-56
2020/12/16 04:42:41;;;;;;;;;;;;;;;20.19;46.48;100514.53;3121572;27;114392;-55
2020/12/16 04:44:12;;;;;;;;;;;;;;;20.18;46.48;100504.44;3121584;27;114264;-55
2020/12/16 04:45:43;;;;;;;;;;;;;;;20.16;46.40;100501.97;3123216;27;115772;-59
2020/12/16 04:47:15;;;;;;;;;;;;;;;20.17;46.47;100506.41;3120587;27;114324;-60
2020/12/16 04:48:47;;;;;;;;;;;;;;;20.14;46.64;100501.44;3119680;27;114664;-60
2020/12/16 04:50:18;;;;;;;;;;;;;;;20.14;46.62;100507.06;3120038;27;114776;-60
2020/12/16 04:51:50;;;;;;;;;;;;;;;20.16;46.71;100501.16;3122777;27;115339;-60
2020/12/16 04:53:24;;;;;;;;;;;;;;;20.14;46.75;100509.03;3121423;27;115126;-56
2020/12/16 04:54:55;;;;;;;;;;;;;;;20.12;46.72;100503.75;3121785;27;115185;-55
2020/12/16 04:56:27;;;;;;;;;;;;;;;20.13;46.75;100508.19;3121159;27;115231;-55
2020/12/16 04:58:00;;;;;;;;;;;;;;;20.11;46.85;100510.50;3114201;27;115008;-55
2020/12/16 04:59:31;;;;;;;;;;;;;;;20.11;46.46;100513.31;3123275;27;116090;-55
2020/12/16 05:01:02;;;;;;;;;;;;;;;20.08;46.62;100513.13;3116997;27;115973;-55
2020/12/16 05:02:33;;;;;;;;;;;;;;;20.06;46.49;100515.41;3117567;27;115099;-55
2020/12/16 05:04:04;;;;;;;;;;;;;;;20.06;46.49;100513.44;3118921;27;114765;-60
2020/12/16 05:05:36;;;;;;;;;;;;;;;20.07;46.25;100505.84;3117532;27;114862;-61
2020/12/16 05:07:25;;;;;;;;;;;;;;;20.05;46.59;100499.72;3121670;27;116130;-55
2020/12/16 05:09:06;;;;;;;;;;;;;;;20.04;46.48;100504.50;3119985;27;115157;-55
2020/12/16 05:10:41;;;;;;;;;;;;;;;20.03;46.22;100508.47;3116437;27;115329;-56
2020/12/16 05:12:16;;;;;;;;;;;;;;;20.01;46.17;100507.94;3115022;27;115038;-56
2020/12/16 05:13:47;;;;;;;;;;;;;;;19.99;46.32;100505.44;3121991;27;114433;-56
2020/12/16 05:15:24;;;;;;;;;;;;;;;20.00;46.29;100514.69;3132968;27;114840;-56
2020/12/16 05:17:02;;;;;;;;;;;;;;;19.98;46.21;100517.81;3132409;27;115758;-56
2020/12/16 05:18:34;;;;;;;;;;;;;;;19.98;46.07;100517.00;3133745;27;118095;-56
2020/12/16 05:20:07;;;;;;;;;;;;;;;19.96;46.14;100511.69;3134650;27;114775;-54
2020/12/16 05:21:38;;;;;;;;;;;;;;;19.95;46.20;100515.63;3124147;27;115920;-55
2020/12/16 05:23:10;;;;;;;;;;;;;;;19.94;46.17;100508.34;3129334;27;114090;-55
2020/12/16 05:24:44;;;;;;;;;;;;;;;19.93;46.18;100503.91;3134378;27;114125;-54
2020/12/16 05:26:15;;;;;;;;;;;;;;;19.93;46.13;100505.88;3119896;27;113801;-55
2020/12/16 05:27:48;;;;;;;;;;;;;;;19.93;46.16;100505.88;3129371;27;114231;-55
2020/12/16 05:29:25;;;;;;;;;;;;;;;19.92;46.37;100509.81;3133749;27;114016;-55
2020/12/16 05:30:57;;;;;;;;;;;;;;;19.91;46.30;100500.59;3134752;27;114371;-55
2020/12/16 05:32:29;;;;;;;;;;;;;;;19.91;46.42;100497.78;3119683;27;114037;-55
2020/12/16 05:34:00;;;;;;;;;;;;;;;19.92;46.30;100502.25;3129611;27;114980;-55
2020/12/16 05:35:34;;;;;;;;;;;;;;;19.91;46.69;100509.00;3112959;27;114265;-54
2020/12/16 05:37:23;;;;;;;;;;;;;;;19.93;46.80;100506.72;3124191;27;114657;-55
2020/12/16 05:38:55;;;;;;;;;;;;;;;19.98;46.62;100512.22;3132897;27;114241;-54
2020/12/16 05:40:28;;;;;;;;;;;;;;;20.02;46.98;100509.59;3136981;27;113667;-55
2020/12/16 05:41:59;;;;;;;;;;;;;;;20.05;47.01;100499.72;3136156;27;113899;-55
2020/12/16 05:43:30;;;;;;;;;;;;;;;20.07;47.07;100503.88;3140223;27;114141;-55
2020/12/16 05:45:13;;;;;;;;;;;;;;;20.12;47.27;100508.53;3136855;27;114279;-55
2020/12/16 05:46:45;;;;;;;;;;;;;;;20.16;47.38;100509.56;3135280;27;114635;-55
2020/12/16 05:48:16;;;;;;;;;;;;;;;20.19;47.20;100517.34;3136173;27;114545;-56
2020/12/16 05:49:47;;;;;;;;;;;;;;;20.23;47.56;100521.16;3137079;27;115060;-55
2020/12/16 05:51:18;;;;;;;;;;;;;;;20.28;47.15;100518.22;3111187;27;115234;-55
2020/12/16 05:52:49;;;;;;;;;;;;;;;20.33;47.05;100509.72;3129068;27;115268;-55
2020/12/16 05:54:21;;;;;;;;;;;;;;;20.36;47.00;100509.91;3136107;27;115342;-55
2020/12/16 05:55:59;;;;;;;;;;;;;;;20.40;47.03;100518.53;3136303;27;114144;-55
2020/12/16 05:57:30;;;;;;;;;;;;;;;20.45;46.90;100512.78;3135896;27;114095;-55
2020/12/16 05:59:07;;;;;;;;;;;;;;;20.49;46.73;100513.81;3136051;27;115076;-55
2020/12/16 06:00:42;;;;;;;;;;;;;;;20.53;46.47;100517.66;3137212;27;115770;-55
2020/12/16 06:02:14;;;;;;;;;;;;;;;20.58;46.36;100520.31;3121964;27;114423;-55
2020/12/16 06:03:46;;;;;;;;;;;;;;;20.60;46.38;100523.66;3130762;27;114262;-55
2020/12/16 06:05:17;;;;;;;;;;;;;;;20.65;46.34;100534.75;3140033;27;114559;-60
2020/12/16 06:06:49;;;;;;;;;;;;;;;20.69;46.33;100521.72;3122551;27;116053;-60
2020/12/16 06:08:20;;;;;;;;;;;;;;;20.73;46.29;100522.75;3132498;27;115770;-61
2020/12/16 06:09:52;;;;;;;;;;;;;;;20.76;46.13;100513.66;3135959;27;114729;-61
2020/12/16 06:11:26;;;;;;;;;;;;;;;20.79;45.91;100518.66;3136194;27;116433;-60
2020/12/16 06:13:03;;;;;;;;;;;;;;;20.83;46.10;100514.06;3136572;27;115859;-60
2020/12/16 06:14:35;;;;;;;;;;;;;;;20.87;45.75;100519.84;3135299;27;115667;-60
2020/12/16 06:16:07;;;;;;;;;;;;;;;20.91;45.55;100526.47;3136524;27;115043;-60
2020/12/16 06:17:40;;;;;;;;;;;;;;;20.96;45.58;100528.31;3135921;27;115876;-60
2020/12/16 06:19:17;;;;;;;;;;;;;;;20.99;45.76;100522.06;3135278;27;114921;-59
2020/12/16 06:20:49;;;;;;;;;;;;;;;21.02;45.46;100519.47;3136128;27;114640;-60
2020/12/16 06:22:22;;;;;;;;;;;;;;;21.05;45.45;100521.59;3136312;27;115980;-60
2020/12/16 06:23:57;;;;;;;;;;;;;;;21.09;45.34;100518.97;3135565;27;114447;-60
2020/12/16 06:25:28;;;;;;;;;;;;;;;21.13;45.33;100511.59;3132627;27;114619;-61
2020/12/16 06:27:07;;;;;;;;;;;;;;;21.15;45.36;100495.25;3135762;27;115727;-61
2020/12/16 06:28:39;;;;;;;;;;;;;;;21.18;45.27;100500.22;3138010;27;115620;-60
2020/12/16 06:30:13;;;;;;;;;;;;;;;21.22;44.97;100506.84;3136378;27;114063;-60
2020/12/16 06:31:44;;;;;;;;;;;;;;;21.24;44.83;100505.38;3132934;27;114414;-60
2020/12/16 06:33:21;;;;;;;;;;;;;;;21.27;44.76;100492.66;3126322;27;114235;-60
2020/12/16 06:34:52;;;;;;;;;;;;;;;21.29;44.95;100499.63;3122867;27;113800;-61
2020/12/16 06:36:28;;;;;;;;;;;;;;;21.32;44.67;100503.75;3119683;27;114800;-60
2020/12/16 06:38:20;;;;;;;;;;;;;;;21.35;44.99;100497.47;3121854;27;119638;-60
2020/12/16 06:39:51;;;;;;;;;;;;;;;21.39;44.82;100504.13;3134085;27;114645;-60
2020/12/16 06:41:26;;;;;;;;;;;;;;;21.42;44.58;100509.09;3135264;27;114209;-60
2020/12/16 06:42:58;;;;;;;;;;;;;;;21.47;44.74;100505.28;3135879;27;114086;-60
2020/12/16 06:44:29;;;;;;;;;;;;;;;21.49;44.64;100502.97;3135251;27;114287;-60
2020/12/16 06:46:01;;;;;;;;;;;;;;;21.51;44.68;100497.88;3120456;27;114011;-60
2020/12/16 06:47:32;;;;;;;;;;;;;;;21.53;44.45;100504.00;3129883;27;114126;-60
2020/12/16 06:49:04;;;;;;;;;;;;;;;21.54;44.73;100505.63;3132087;27;113922;-60
2020/12/16 06:50:36;;;;;;;;;;;;;;;21.57;44.59;100510.63;3139466;27;114369;-60
2020/12/16 06:52:08;;;;;;;;;;;;;;;21.59;44.55;100511.94;3135422;27;114191;-60
2020/12/16 06:53:39;;;;;;;;;;;;;;;21.61;44.68;100518.09;3133332;27;114079;-59
2020/12/16 06:55:19;;;;;;;;;;;;;;;21.63;44.54;100524.19;3136560;27;115202;-60
2020/12/16 06:57:08;;;;;;;;;;;;;;;21.66;44.18;100517.09;3135946;27;115642;-60
2020/12/16 06:58:39;;;;;;;;;;;;;;;21.68;44.14;100511.97;3111415;27;115289;-60
2020/12/16 07:00:16;;;;;;;;;;;;;;;21.71;44.07;100519.78;3124424;27;115220;-59
2020/12/16 07:02:07;;;;;;;;;;;;;;;21.72;44.36;100519.41;3135310;27;115654;-60
2020/12/16 07:03:39;;;;;;;;;;;;;;;21.74;44.33;100517.13;3124065;27;114698;-59
2020/12/16 07:05:28;;;;;;;;;;;;;;;21.77;43.98;100523.22;3136198;27;115354;-60
2020/12/16 07:07:00;;;;;;;;;;;;;;;21.80;44.13;100516.97;3124276;27;115962;-60
2020/12/16 07:09:08;;;;;;;;;;;;;;;21.81;44.06;100515.78;3123498;27;115181;-60
2020/12/16 07:10:44;;;;;;;;;;;;;;;21.84;44.14;100515.16;3126158;27;115121;-60
2020/12/16 07:12:28;;;;;;;;;;;;;;;21.87;44.04;100525.75;3134133;27;113939;-60
2020/12/16 07:14:09;;;;;;;;;;;;;;;21.89;43.72;100526.25;3128805;27;115103;-59
2020/12/16 07:16:01;;;;;;;;;;;;;;;21.91;43.97;100524.75;3113420;27;115878;-62
2020/12/16 07:17:32;;;;;;;;;;;;;;;21.95;43.83;100522.16;3110192;27;114803;-60
2020/12/16 07:19:03;;;;;;;;;;;;;;;21.96;43.75;100527.44;3123011;27;114658;-60
2020/12/16 07:20:35;;;;;;;;;;;;;;;21.98;43.59;100519.53;3111145;27;114713;-60
2020/12/16 07:22:16;;;;;;;;;;;;;;;21.99;43.69;100511.88;3123042;27;114634;-60
2020/12/16 07:23:51;;;;;;;;;;;;;;;22.02;43.71;100511.25;3121771;27;114904;-59
2020/12/16 07:25:23;;;;;;;;;;;;;;;22.04;44.06;100515.38;3123221;27;115678;-60
2020/12/16 07:26:55;;;;;;;;;;;;;;;22.05;43.83;100510.59;3122479;27;114846;-61
2020/12/16 07:28:27;;;;;;;;;;;;;;;22.07;43.87;100514.75;3119344;27;117912;-60
2020/12/16 07:29:58;;;;;;;;;;;;;;;22.08;43.54;100510.75;3122948;27;114630;-60
2020/12/16 07:31:30;;;;;;;;;;;;;;;22.11;43.85;100520.53;3119460;27;114628;-60
2020/12/16 07:33:12;;;;;;;;;;;;;;;22.12;43.87;100527.81;3122026;27;115528;-60
2020/12/16 07:34:44;;;;;;;;;;;;;;;22.14;43.54;100529.13;3111604;27;116718;-57
2020/12/16 07:36:16;;;;;;;;;;;;;;;22.16;43.74;100528.81;3124054;27;115858;-56
2020/12/16 07:37:48;;;;;;;;;;;;;;;22.19;44.40;100533.78;3121848;27;114062;-56
2020/12/16 07:39:19;;;;;;;;;;;;;;;22.20;44.12;100527.00;3121379;27;114451;-56
2020/12/16 07:40:51;;;;;;;;;;;;;;;22.22;44.07;100521.00;3122612;27;113928;-56
2020/12/16 07:42:26;;;;;;;;;;;;;;;22.23;43.80;100529.13;3122058;27;114427;-55
2020/12/16 07:43:59;;;;;;;;;;;;;;;22.27;43.65;100532.09;3121240;27;114010;-53
2020/12/16 07:45:30;;;;;;;;;;;;;;;22.26;44.07;100522.84;3122677;27;113828;-54
2020/12/16 07:47:08;;;;;;;;;;;;;;;22.28;43.96;100531.78;3121400;27;114147;-55
2020/12/16 07:48:43;;;;;;;;;;;;;;;22.30;43.65;100523.03;3121734;27;114263;-56
2020/12/16 07:50:14;;;;;;;;;;;;;;;22.31;43.94;100533.09;3120520;27;113957;-56
2020/12/16 07:51:46;;;;;;;;;;;;;;;22.32;43.94;100529.97;3122477;27;114107;-56